Language selection

Features

My Weather Profile Weather Topics  | 

East Foxe: Past 24 Hour Conditions

 

Baker Lake Airport

05:00 PM CST 14 December 2019
Disclaimer

This table is a summary of hourly weather conditions for the past 24 hours.
Please note that these observations might not always be representative of weather conditions over their associated marine area.

Date / Time
(CST)
Wind(knots) Conditions Visibility(km) Pressure(kPa) Air tempC) Relative humidity(%) Dew pointC) Wind Chill
14 December 2019
17:00 NW 8 Mainly Clear 24 100.5 -28 68 -32 -39
16:00 NW 16 Mainly Clear 32 100.4 -27 67 -31 -41
15:00 NW 11 Mainly Clear 24 100.4 -25 69 -29 -37
14:00 NNW 9 Light Snow 32 100.3 -23 70 -27 -34
13:00 WNW 10 Light Snow 24 100.3 -21 71 -25 -32
12:00 WNW 13 gust 20 Light Snow 32 100.3 -21 70 -25 -32
11:00 WNW 13 gust 19 Light Snow 32 100.3 -21 70 -25 -33
10:00 W 16 Mostly Cloudy 32 100.3 -21 70 -25 -34
9:00 W 14 Mostly Cloudy 32 100.3 -22 71 -26 -34
8:00 W 15 gust 20 Mostly Cloudy 24 100.4 -22 71 -26 -35
7:00 W 15 Mostly Cloudy 24 100.4 -22 71 -26 -34
6:00 W 15 Mostly Cloudy 24 100.4 -22 70 -26 -34
5:00 WSW 12 Mostly Cloudy 24 100.5 -21 70 -25 -32
4:00 WSW 11 gust 17 Partly Cloudy 24 100.5 -21 69 -26 -32
3:00 W 22 Partly Cloudy 24 100.6 -22 68 -26 -36
2:00 WSW 16 gust 23 Partly Cloudy 24 100.6 -23 70 -27 -36
1:00 W 24 Mostly Cloudy 24 100.7 -22 70 -26 -38
0:00 W 12 gust 18 Mostly Cloudy 24 100.8 -22 71 -26 -34
13 December 2019
23:00 W 23 Mostly Cloudy 24 100.8 -22 72 -25 -37
22:00 W 16 Mostly Cloudy 24 100.9 -22 72 -25 -35
21:00 W 19 gust 24 Mostly Cloudy 24 100.9 -22 72 -26 -36
20:00 W 15 Mostly Cloudy 24 101.1 -22 72 -26 -35
19:00 WNW 14 gust 21 Mostly Cloudy 24 101.1 -23 71 -27 -35
18:00 WNW 5 Mostly Cloudy 24 101.2 -23 73 -26 -30
17:00 S 2 gust 15 Mainly Clear 24 101.3 -23 70 -27 -27

Zoom-in to make a selection

Map of Hudson - Hudson Bay marine weather areas Arviat Airport Baker Lake Airport Chesterfield Inlet Airport Coral Harbour Airport Rankin Inlet Airport Sanikiluaq Airport Whale Cove Airport Cape Dorset Airport Iqaluit Airport Wager Bay Kimmirut Airport Churchill Airport Fort Severn Airport Peawanuck Airport Moosonee Airport Eastmain Airport La Grande Rivière Airport Waskaganish Airport Wemindji Airport Akulivik Airport Inukjuak Airport Ivujivik Airport Kuujjuarapik Airport Puvirnituq Airport Umiujaq Airport Aupaluk Airport Kangiqsujuaq Airport Kangirsuk Airport Kangiqsualujjuaq Airport Kuujjuaq Airport Quaqtaq Airport Salluit Airport Tasiujaq Airport Cape Kakkiviak
Legend:
buoy Buoy
land station Land Station

Hudson - Hudson Bay Area

Another Region

What we are doing

Date modified: